Flight Track Log - Related Links

Times and Time Zones

All times are in EDT time to prevent confusion due to time zone crossing. See the FDX1703 flight status page for this flight to view local times or setup timezone preferences in your user account.

Time Position Orientation Groundspeed Altitude Reporting Facility
EDT Latitude Longitude Course Direction KTS MPH feet Rate Location/Type
Tue 03:33:35 AM 39.7130 -86.2880 43° Northeast 120 138  Level FlightAware ADS-B
Tue 03:33:57 AM 39.7010 -86.3030 224° Southwest 163 188 1,000 2,571 Climbing FlightAware ADS-B
Tue 03:34:17 AM 39.6920 -86.3140 223° Southwest 145 167 1,800 1,929 Climbing FlightAware ADS-B
Tue 03:34:25 AM 39.6860 -86.3180 207° Southwest 162 186 1,900 923 Climbing FlightAware ADS-B
Tue 03:34:43 AM 39.6720 -86.3250 201° Southwest 188 216 2,200 1,350 Climbing FlightAware ADS-B
Tue 03:35:05 AM 39.6530 -86.3350 202° Southwest 206 237 2,800 1,435 Climbing FlightAware ADS-B
Tue 03:35:29 AM 39.6310 -86.3450 199° South 238 274 3,300 1,463 Climbing FlightAware ADS-B
Tue 03:35:46 AM 39.6110 -86.3460 182° South 257 296 3,800 1,895 Climbing FlightAware ADS-B
Tue 03:36:07 AM 39.5840 -86.3450 178° South 275 316 4,500 2,167 Climbing FlightAware ADS-B
Tue 03:36:22 AM 39.5640 -86.3440 178° South 282 325 5,100 2,667 Climbing FlightAware ADS-B
Tue 03:36:43 AM 39.5380 -86.3420 177° South 285 328 6,100 2,930 Climbing FlightAware ADS-B
Tue 03:37:05 AM 39.5070 -86.3380 174° South 286 329 7,200 2,842 Climbing FlightAware ADS-B
Tue 03:37:21 AM 39.4870 -86.3360 176° South 288 331 7,900 2,432 Climbing FlightAware ADS-B
Tue 03:37:42 AM 39.4600 -86.3320 173° South 292 336 8,700 2,364 Climbing FlightAware ADS-B
Tue 03:37:54 AM 39.4430 -86.3300 175° South 293 337 9,200 2,372 Climbing FlightAware ADS-B
Tue 03:38:25 AM 39.4000 -86.3200 170° South 305 351 10,400 1,775 Climbing FlightAware ADS-B
Tue 03:39:05 AM 39.3430 -86.3000 165° South 340 391 11,300 1,263 Climbing FlightAware ADS-B
Tue 03:39:41 AM 39.2850 -86.2800 165° South 368 423 12,000 1,588 Climbing FlightAware ADS-B
Tue 03:40:13 AM 39.2340 -86.2620 165° South 377 434 13,100 1,909 Climbing FlightAware ADS-B
Tue 03:40:47 AM 39.1720 -86.2400 165° South 388 447 14,100 1,667 Climbing FlightAware ADS-B
Tue 03:41:25 AM 39.1070 -86.2170 165° South 404 465 15,100 1,437 Climbing FlightAware ADS-B
Tue 03:41:58 AM 39.0460 -86.1950 164° South 417 480 15,800 1,565 Climbing FlightAware ADS-B
Tue 03:42:34 AM 38.9770 -86.1710 165° South 423 487 16,900 1,135 Climbing FlightAware ADS-B
Tue 03:43:12 AM 38.9140 -86.1480 164° South 424 488 17,200 1,583 Climbing FlightAware ADS-B
Tue 03:43:46 AM 38.8400 -86.1230 165° South 436 502 18,800 2,053 Climbing FlightAware ADS-B
Tue 03:44:28 AM 38.7580 -86.0940 165° South 444 511 19,800 759 Climbing FlightAware ADS-B
Tue 03:45:05 AM 38.6950 -86.0720 165° South 444 511 19,800 1,500 Level FlightAware ADS-B
Tue 03:45:36 AM 38.6170 -86.0450 165° South 456 525 21,500 2,149 Climbing FlightAware ADS-B
Tue 03:46:12 AM 38.5460 -86.0200 165° South 461 531 22,200 1,352 Climbing FlightAware ADS-B
Tue 03:46:47 AM 38.4730 -85.9950 165° South 465 535 23,100 1,437 Climbing FlightAware ADS-B
Tue 03:47:23 AM 38.3970 -85.9690 165° South 471 542 23,900 1,324 Climbing FlightAware ADS-B
Tue 03:47:55 AM 38.3290 -85.9460 165° South 474 545 24,600 1,235 Climbing FlightAware ADS-B
Tue 03:48:31 AM 38.2520 -85.9190 165° South 479 551 25,300 1,083 Climbing FlightAware ADS-B
Tue 03:49:07 AM 38.1750 -85.8930 165° South 485 558 25,900 1,114 Climbing FlightAware ADS-B
Tue 03:49:41 AM 38.1000 -85.8670 165° South 489 563 26,600 1,099 Climbing FlightAware ADS-B
Tue 03:50:18 AM 38.0210 -85.8400 165° South 493 567 27,200 904 Climbing FlightAware ADS-B
Tue 03:50:54 AM 37.9390 -85.8120 165° South 499 574 27,700 971 Climbing FlightAware ADS-B
Tue 03:51:26 AM 37.8680 -85.7880 165° South 502 578 28,300 882 Climbing FlightAware ADS-B
Tue 03:52:02 AM 37.7870 -85.7600 165° South 508 585 28,700 917 Climbing FlightAware ADS-B
Tue 03:52:38 AM 37.7030 -85.7320 165° South 510 587 29,400 1,000 Climbing FlightAware ADS-B
Tue 03:53:14 AM 37.6230 -85.7050 165° South 512 589 29,900 794 Climbing FlightAware ADS-B
Tue 03:53:46 AM 37.5470 -85.6790 165° South 516 594 30,300 794 Climbing FlightAware ADS-B
Tue 03:54:22 AM 37.4660 -85.6520 165° South 519 597 30,800 941 Climbing FlightAware ADS-B
Tue 03:54:37 AM 37.4292 -85.6399 165° South 518 596 31,100 1,038 Climbing FlightAware ADS-B
Tue 03:55:14 AM 37.3420 -85.6103 165° South 517 595 31,700 975 Climbing FlightAware ADS-B
Tue 03:55:57 AM 37.2435 -85.5770 165° South 516 594 32,400 867 Climbing FlightAware ADS-B
Tue 03:56:44 AM 37.1346 -85.5408 165° South 516 594 33,000 462 Climbing FlightAware ADS-B
Tue 03:57:15 AM 37.0638 -85.5178 165° South 518 596 33,000  Level FlightAware ADS-B
Tue 03:57:45 AM 36.9932 -85.4941 165° South 517 595 33,000  Level FlightAware ADS-B
Tue 03:58:33 AM 36.8820 -85.4575 165° South 515 593 33,000  Level FlightAware ADS-B
Tue 03:59:05 AM 36.8093 -85.4331 165° South 512 589 33,000  Level FlightAware ADS-B
Tue 03:59:35 AM 36.7404 -85.4104 165° South 511 588 33,000  Level FlightAware ADS-B
Tue 04:00:08 AM 36.6650 -85.3855 165° South 511 588 33,000  Level FlightAware ADS-B
Tue 04:00:39 AM 36.5950 -85.3630 166° South 511 588 33,000  Level FlightAware ADS-B
Tue 04:01:09 AM 36.5259 -85.3397 165° South 512 589 33,000  Level FlightAware ADS-B
Tue 04:01:43 AM 36.4462 -85.3142 166° South 514 592 33,000  Level FlightAware ADS-B
Tue 04:02:30 AM 36.3389 -85.2791 165° South 513 590 33,000  Level FlightAware ADS-B
Tue 04:03:00 AM 36.2700 -85.2568 165° South 507 583 33,000  Level FlightAware ADS-B
Tue 04:03:39 AM 36.1828 -85.2278 165° South 507 583 33,000  Level FlightAware ADS-B
Tue 04:04:10 AM 36.1115 -85.2050 166° South 506 582 33,000  Level FlightAware ADS-B
Tue 04:04:41 AM 36.0429 -85.1830 165° South 506 582 33,000  Level FlightAware ADS-B
Tue 04:05:12 AM 35.9725 -85.1604 165° South 505 581 33,000  Level FlightAware ADS-B
Tue 04:05:42 AM 35.9041 -85.1380 165° South 503 579 33,000  Level FlightAware ADS-B
Tue 04:06:18 AM 35.8340 -85.1150 165° South 504 580 33,000  Level FlightAware ADS-B
Tue 04:06:36 AM 35.7818 -85.0986 166° South 504 580 33,000  Level FlightAware ADS-B
Tue 04:07:06 AM 35.7135 -85.0769 166° South 504 580 33,000  Level FlightAware ADS-B
Tue 04:07:37 AM 35.6451 -85.0552 166° South 504 580 33,000  Level FlightAware ADS-B
Tue 04:08:07 AM 35.5771 -85.0336 166° South 504 580 33,000  Level FlightAware ADS-B
Tue 04:08:37 AM 35.5083 -85.0112 165° South 505 581 33,000  Level FlightAware ADS-B
Tue 04:09:07 AM 35.4400 -84.9895 165° South 504 580 33,000 -100 Level FlightAware ADS-B
Tue 04:09:37 AM 35.3718 -84.9679 166° South 502 578 32,900 -100 Descending FlightAware ADS-B
Tue 04:10:07 AM 35.3037 -84.9463 165° South 504 580 32,900 -689 Level FlightAware ADS-B
Tue 04:10:38 AM 35.2359 -84.9247 165° South 503 579 32,200 -2,382 Descending FlightAware ADS-B
Tue 04:11:15 AM 35.1519 -84.8981 165° South 504 580 30,200 -2,955 Descending FlightAware ADS-B
Tue 04:11:45 AM 35.0831 -84.8763 165° South 496 571 28,900 -2,400 Descending FlightAware ADS-B
Tue 04:12:15 AM 35.0171 -84.8555 166° South 483 556 27,800 -2,164 Descending FlightAware ADS-B
Tue 04:12:46 AM 34.9519 -84.8344 165° South 471 542 26,700 -2,197 Descending FlightAware ADS-B
Tue 04:13:26 AM 34.8671 -84.8083 166° South 462 532 25,200 -2,113 Descending FlightAware ADS-B
Tue 04:13:57 AM 34.8054 -84.7894 166° South 450 518 24,200 -1,869 Descending FlightAware ADS-B
Tue 04:14:27 AM 34.7443 -84.7702 166° South 457 526 23,300 -1,700 Descending FlightAware ADS-B
Tue 04:14:57 AM 34.6792 -84.7503 166° South 484 557 22,500 -1,967 Descending FlightAware ADS-B
Tue 04:15:28 AM 34.6131 -84.7294 165° South 480 552 21,300 -2,361 Descending FlightAware ADS-B
Tue 04:15:58 AM 34.5492 -84.7092 165° South 467 537 20,100 -2,400 Descending FlightAware ADS-B
Tue 04:16:28 AM 34.4867 -84.6897 166° South 455 524 18,900 -2,361 Descending FlightAware ADS-B
Tue 04:16:59 AM 34.4236 -84.6703 166° South 444 511 17,700 -2,400 Descending FlightAware ADS-B
Tue 04:17:38 AM 34.3469 -84.6463 166° South 439 505 16,100 -2,464 Descending FlightAware ADS-B
Tue 04:17:55 AM 34.3152 -84.6363 165° South 424 488 15,400 -2,308 Descending FlightAware ADS-B
Tue 04:18:04 AM 34.2978 -84.6333 172° South 423 487 15,100 -1,077 Descending FlightAware ADS-B
Tue 04:18:34 AM 34.2383 -84.6345 181° South 418 481 14,700 -1,161 Descending FlightAware ADS-B
Tue 04:19:06 AM 34.1794 -84.6363 181° South 391 450 13,900 -2,149 Descending FlightAware ADS-B
Tue 04:19:41 AM 34.1190 -84.6370 181° South 364 419 12,300 -2,933 Descending FlightAware ADS-B
Tue 04:19:51 AM 34.1013 -84.6378 182° South 368 423 11,700 -1,941 Descending FlightAware ADS-B
Tue 04:20:49 AM 34.0130 -84.6410 182° South 302 348 10,100 -1,703 Descending FlightAware ADS-B
Tue 04:21:05 AM 33.9910 -84.6410 180° South 292 336 9,600 -1,500 Descending FlightAware ADS-B
Tue 04:21:25 AM 33.9650 -84.6420 182° South 275 316 9,200 -1,200 Descending FlightAware ADS-B
Tue 04:21:45 AM 33.9400 -84.6430 182° South 259 298 8,800 -1,200 Descending FlightAware ADS-B
Tue 04:22:05 AM 33.9170 -84.6430 180° South 247 284 8,400 -1,600 Descending FlightAware ADS-B
Tue 04:22:30 AM 33.8890 -84.6440 182° South 246 283 7,600 -2,000 Descending FlightAware ADS-B
Tue 04:22:38 AM 33.8800 -84.6450 185° South 246 283 7,300 -1,818 Descending FlightAware ADS-B
Tue 04:23:03 AM 33.8510 -84.6460 182° South 238 274 6,600 -1,525 Descending FlightAware ADS-B
Tue 04:23:37 AM 33.8150 -84.6470 181° South 222 255 5,800 -1,552 Descending FlightAware ADS-B
Tue 04:24:01 AM 33.7900 -84.6490 184° South 226 260 5,100 -1,650 Descending FlightAware ADS-B
Tue 04:24:17 AM 33.7730 -84.6510 186° South 227 261 4,700 -1,500 Descending FlightAware ADS-B
Tue 04:24:41 AM 33.7480 -84.6540 186° South 227 261 4,100 -1,350 Descending FlightAware ADS-B
Tue 04:24:57 AM 33.7320 -84.6550 183° South 223 257 3,800 -500 Descending FlightAware ADS-B
Tue 04:25:17 AM 33.7110 -84.6570 185° South 222 255 3,800  Level FlightAware ADS-B
Tue 04:25:29 AM 33.6980 -84.6580 184° South 223 257 3,800  Level FlightAware ADS-B
Tue 04:25:45 AM 33.6830 -84.6580 180° South 223 257 3,800  Level FlightAware ADS-B
Tue 04:25:53 AM 33.6750 -84.6550 163° South 219 252 3,800  Level FlightAware ADS-B
Tue 04:25:57 AM 33.6720 -84.6530 151° Southeast 213 245 3,800  Level FlightAware ADS-B
Tue 04:26:05 AM 33.6670 -84.6450 127° Southeast 198 228 3,800 -214 Level FlightAware ADS-B
Tue 04:26:25 AM 33.6580 -84.6270 121° Southeast 186 214 3,700 -545 Descending FlightAware ADS-B
Tue 04:26:49 AM 33.6480 -84.6040 118° Southeast 182 209 3,400 -1,000 Descending FlightAware ADS-B
Tue 04:27:01 AM 33.6460 -84.5940 104° East 180 207 3,100 -1,050 Descending FlightAware ADS-B
Tue 04:27:29 AM 33.6470 -84.5650 88° East 185 213 2,700 -750 Descending FlightAware ADS-B
Tue 04:27:49 AM 33.6470 -84.5450 90° East 187 215 2,500 -840 Descending FlightAware ADS-B
Tue 04:28:19 AM 33.6470 -84.5150 90° East 168 193 2,000 -818 Descending FlightAware ADS-B
Tue 04:28:55 AM 33.6470 -84.4830 90° East 151 174 1,600 -750 Descending FlightAware ADS-B
Tue 04:29:15 AM 33.6470 -84.4670 90° East 153 176 1,300 -750 Descending FlightAware ADS-B
Tue 04:29:27 AM 33.6470 -84.4550 90° East 154 177 1,200 -833 Descending FlightAware ADS-B
Tue 04:29:51 AM 33.6470 -84.4360 90° East 153 176 800 -1,000 Descending FlightAware ADS-B

Login

Don't have an account? Register now (free) for customized features, flight alerts, and more!